Time;durP1;ratioP1;P1;durP2;ratioP2;P2;SDS_P1;SDS_P2;PMS_P1;PMS_P2;Temp;Humidity;BMP_temperature;BMP_pressure;BME280_temperature;BME280_humidity;BME280_pressure;Samples;Min_cycle;Max_cycle;Signal;HPM_P1;HPM_P2
2021/01/05 00:01:40;;;;;;;6.37;5.37;;;;;;;;;;5037878;28;20542;-73
2021/01/05 00:04:07;;;;;;;7.40;5.03;;;;;;;;;;5037885;28;20758;-74
2021/01/05 00:06:34;;;;;;;7.80;5.27;;;;;;;;;;5037266;28;20455;-73
2021/01/05 00:09:02;;;;;;;8.53;5.40;;;;;;;;;;5037918;28;20716;-73
2021/01/05 00:11:32;;;;;;;6.07;5.47;;;;;;;;;;5037882;28;20766;-73
2021/01/05 00:14:00;;;;;;;8.10;6.10;;;;;;;;;;5037567;28;20466;-74
2021/01/05 00:16:29;;;;;;;6.87;4.83;;;;;;;;;;5037907;28;20458;-73
2021/01/05 00:18:56;;;;;;;8.47;5.00;;;;;;;;;;5037540;28;20481;-73
2021/01/05 00:21:25;;;;;;;9.10;5.50;;;;;;;;;;5037720;28;20524;-73
2021/01/05 00:23:53;;;;;;;7.10;5.17;;;;;;;;;;5037698;28;20462;-73
2021/01/05 00:26:20;;;;;;;7.27;5.47;;;;;;;;;;5037300;28;20612;-73
2021/01/05 00:28:47;;;;;;;6.90;4.83;;;;;;;;;;5037797;28;20469;-73
2021/01/05 00:31:16;;;;;;;8.27;5.87;;;;;;;;;;5036909;28;20544;-73
2021/01/05 00:33:43;;;;;;;7.40;5.07;;;;;;;;;;5037784;28;20790;-73
2021/01/05 00:36:10;;;;;;;9.53;5.13;;;;;;;;;;5037198;28;20753;-73
2021/01/05 00:38:38;;;;;;;9.03;4.90;;;;;;;;;;5036844;28;20475;-73
2021/01/05 00:41:05;;;;;;;8.70;5.50;;;;;;;;;;5037228;28;20462;-73
2021/01/05 00:43:32;;;;;;;8.50;5.47;;;;;;;;;;5036729;28;20453;-73
2021/01/05 00:46:00;;;;;;;6.20;4.90;;;;;;;;;;5037275;28;20478;-74
2021/01/05 00:48:28;;;;;;;6.73;4.37;;;;;;;;;;5037233;28;20473;-73
2021/01/05 00:50:55;;;;;;;6.50;4.70;;;;;;;;;;5036974;28;20562;-73
2021/01/05 00:53:23;;;;;;;6.47;4.30;;;;;;;;;;5037033;28;20451;-73
2021/01/05 00:55:50;;;;;;;9.73;6.17;;;;;;;;;;5035835;28;20480;-73
2021/01/05 00:58:17;;;;;;;8.17;5.40;;;;;;;;;;5036761;28;20501;-73
2021/01/05 01:00:45;;;;;;;7.80;5.00;;;;;;;;;;5037024;28;20470;-73
2021/01/05 01:03:12;;;;;;;7.50;5.57;;;;;;;;;;5036734;28;20528;-73
2021/01/05 01:05:41;;;;;;;9.63;5.70;;;;;;;;;;5037024;28;20557;-73
2021/01/05 01:08:08;;;;;;;7.70;5.40;;;;;;;;;;5037591;28;20506;-73
2021/01/05 01:10:36;;;;;;;7.57;5.10;;;;;;;;;;5036779;28;20462;-73
2021/01/05 01:13:03;;;;;;;7.90;5.80;;;;;;;;;;5037074;28;20473;-73
2021/01/05 01:15:31;;;;;;;7.10;5.17;;;;;;;;;;5036940;28;20497;-73
2021/01/05 01:17:58;;;;;;;7.57;4.93;;;;;;;;;;5036556;28;20551;-73
2021/01/05 01:20:25;;;;;;;10.00;6.60;;;;;;;;;;5037311;28;20462;-73
2021/01/05 01:22:54;;;;;;;11.00;6.90;;;;;;;;;;5036925;28;20455;-73
2021/01/05 01:25:22;;;;;;;7.03;4.70;;;;;;;;;;5036740;28;20466;-73
2021/01/05 01:27:49;;;;;;;7.53;5.90;;;;;;;;;;5037101;28;20473;-73
2021/01/05 01:30:17;;;;;;;7.67;5.13;;;;;;;;;;5036406;28;20679;-73
2021/01/05 01:32:44;;;;;;;8.80;5.53;;;;;;;;;;5036588;28;20454;-73
2021/01/05 01:35:12;;;;;;;8.20;5.57;;;;;;;;;;5037054;28;20864;-73
2021/01/05 01:37:40;;;;;;;6.50;4.90;;;;;;;;;;5036373;28;20504;-73
2021/01/05 01:40:10;;;;;;;6.90;4.97;;;;;;;;;;5036204;28;20494;-73
2021/01/05 01:42:37;;;;;;;6.77;5.30;;;;;;;;;;5036539;28;20467;-73
2021/01/05 01:45:05;;;;;;;5.77;4.37;;;;;;;;;;5041242;28;20453;-74
2021/01/05 01:47:34;;;;;;;6.93;4.80;;;;;;;;;;5056273;28;20458;-73
2021/01/05 01:50:05;;;;;;;8.50;5.13;;;;;;;;;;5056123;28;20465;-73
2021/01/05 01:52:48;;;;;;;6.87;4.60;;;;;;;;;;5055970;28;20469;-73
2021/01/05 01:55:28;;;;;;;8.07;3.30;;;;;;;;;;5056324;28;20468;-73
2021/01/05 01:58:14;;;;;;;4.83;3.40;;;;;;;;;;5056374;28;20778;-73
2021/01/05 02:00:47;;;;;;;4.87;3.77;;;;;;;;;;5056354;28;20510;-73
2021/01/05 02:03:32;;;;;;;6.00;3.67;;;;;;;;;;5056341;28;20795;-73
2021/01/05 02:06:09;;;;;;;7.20;3.53;;;;;;;;;;5056782;28;20472;-73
2021/01/05 02:08:41;;;;;;;6.87;3.77;;;;;;;;;;5059632;28;20468;-73
2021/01/05 02:11:14;;;;;;;5.43;3.90;;;;;;;;;;5059808;28;20466;-73
2021/01/05 02:13:51;;;;;;;5.10;4.30;;;;;;;;;;5060232;28;20452;-73
2021/01/05 02:16:25;;;;;;;4.97;3.50;;;;;;;;;;5060097;28;20846;-74
2021/01/05 02:18:54;;;;;;;5.37;3.40;;;;;;;;;;5059890;28;20578;-73
2021/01/05 02:21:23;;;;;;;6.37;4.33;;;;;;;;;;5060007;28;20870;-73
2021/01/05 02:24:01;;;;;;;4.97;2.77;;;;;;;;;;5059729;28;20858;-72
2021/01/05 02:26:32;;;;;;;6.87;3.70;;;;;;;;;;5059469;28;20748;-73
2021/01/05 02:29:02;;;;;;;5.37;3.33;;;;;;;;;;5059681;28;20522;-73
2021/01/05 02:31:40;;;;;;;3.57;2.67;;;;;;;;;;5060404;28;20483;-72
2021/01/05 02:34:09;;;;;;;6.17;3.60;;;;;;;;;;5059593;28;20536;-73
2021/01/05 02:37:02;;;;;;;3.87;2.97;;;;;;;;;;5059706;28;20470;-73
2021/01/05 02:39:50;;;;;;;5.07;2.80;;;;;;;;;;5037943;28;20823;-73
2021/01/05 02:42:38;;;;;;;4.20;2.40;;;;;;;;;;5053869;28;20548;-73
2021/01/05 02:45:11;;;;;;;4.03;2.60;;;;;;;;;;5018719;28;20497;-73
2021/01/05 02:47:47;;;;;;;4.43;2.60;;;;;;;;;;5060125;28;20460;-73
2021/01/05 02:50:22;;;;;;;5.07;2.43;;;;;;;;;;5059581;28;20461;-73
2021/01/05 02:53:20;;;;;;;3.80;2.17;;;;;;;;;;5059378;28;20465;-73
2021/01/05 02:56:05;;;;;;;3.17;2.00;;;;;;;;;;5040856;28;20474;-73
2021/01/05 02:58:46;;;;;;;4.03;2.90;;;;;;;;;;5058959;28;20523;-73
2021/01/05 03:01:30;;;;;;;2.90;1.83;;;;;;;;;;5059290;28;20461;-73
2021/01/05 03:03:59;;;;;;;3.27;2.20;;;;;;;;;;5044205;28;20462;-73
2021/01/05 03:06:31;;;;;;;4.83;2.67;;;;;;;;;;5057518;28;20450;-73
2021/01/05 03:09:11;;;;;;;4.50;2.53;;;;;;;;;;5057806;28;21096;-73
2021/01/05 03:11:49;;;;;;;3.70;2.50;;;;;;;;;;5058930;28;20461;-73
2021/01/05 03:14:20;;;;;;;3.57;2.13;;;;;;;;;;5057721;28;20454;-73
2021/01/05 03:16:51;;;;;;;3.20;2.07;;;;;;;;;;5059041;28;20739;-73
2021/01/05 03:19:25;;;;;;;3.30;2.13;;;;;;;;;;5057232;28;20505;-73
2021/01/05 03:21:55;;;;;;;3.67;2.60;;;;;;;;;;5058485;28;20473;-73
2021/01/05 03:24:23;;;;;;;3.80;2.40;;;;;;;;;;5050532;28;20466;-73
2021/01/05 03:26:51;;;;;;;3.80;2.70;;;;;;;;;;5058116;28;20531;-73
2021/01/05 03:29:19;;;;;;;3.47;2.13;;;;;;;;;;5058610;28;20465;-72
2021/01/05 03:31:47;;;;;;;4.33;2.47;;;;;;;;;;5059017;28;20472;-73
2021/01/05 03:34:15;;;;;;;5.57;2.90;;;;;;;;;;5058751;28;20458;-73
2021/01/05 03:36:43;;;;;;;4.60;3.43;;;;;;;;;;5058462;28;20481;-73
2021/01/05 03:39:11;;;;;;;4.20;2.90;;;;;;;;;;5059103;28;20528;-73
2021/01/05 03:41:38;;;;;;;3.60;2.80;;;;;;;;;;5057753;28;20454;-73
2021/01/05 03:44:06;;;;;;;5.53;3.97;;;;;;;;;;5058700;28;20466;-73
2021/01/05 03:46:33;;;;;;;4.70;3.60;;;;;;;;;;5058646;28;20758;-73
2021/01/05 03:49:00;;;;;;;5.93;3.67;;;;;;;;;;5057596;28;20465;-73
2021/01/05 03:51:28;;;;;;;6.10;3.90;;;;;;;;;;5057844;28;20472;-73
2021/01/05 03:53:56;;;;;;;5.17;3.53;;;;;;;;;;5058079;28;20697;-73
2021/01/05 03:56:23;;;;;;;6.13;3.70;;;;;;;;;;5049467;28;20454;-72
2021/01/05 03:58:51;;;;;;;5.20;4.00;;;;;;;;;;5058315;28;20497;-74
2021/01/05 04:01:18;;;;;;;5.60;3.73;;;;;;;;;;5057756;28;20464;-73
2021/01/05 04:03:46;;;;;;;6.83;4.50;;;;;;;;;;5058525;28;20473;-73
2021/01/05 04:06:13;;;;;;;7.50;4.70;;;;;;;;;;5058136;28;20464;-73
2021/01/05 04:08:41;;;;;;;6.63;3.90;;;;;;;;;;5058377;28;20464;-72
2021/01/05 04:11:09;;;;;;;6.27;4.57;;;;;;;;;;5057685;28;20454;-73
2021/01/05 04:13:37;;;;;;;8.43;5.40;;;;;;;;;;5057571;28;20466;-73
2021/01/05 04:16:04;;;;;;;7.10;4.20;;;;;;;;;;5057545;28;20454;-72
2021/01/05 04:18:32;;;;;;;8.37;5.17;;;;;;;;;;5056573;28;20490;-73
2021/01/05 04:20:59;;;;;;;7.10;5.23;;;;;;;;;;5048683;28;20461;-73
2021/01/05 04:23:26;;;;;;;6.67;4.60;;;;;;;;;;5057711;28;21077;-72
2021/01/05 04:25:54;;;;;;;9.57;5.37;;;;;;;;;;5056572;28;20863;-72
2021/01/05 04:28:22;;;;;;;10.20;6.13;;;;;;;;;;5057782;28;20874;-73
2021/01/05 04:30:49;;;;;;;8.80;6.20;;;;;;;;;;5056340;28;20446;-72
2021/01/05 04:33:19;;;;;;;9.27;5.90;;;;;;;;;;5057372;28;20470;-72
2021/01/05 04:35:49;;;;;;;10.20;6.97;;;;;;;;;;5057267;28;20465;-74
2021/01/05 04:38:20;;;;;;;10.10;7.27;;;;;;;;;;5057033;28;20988;-72
2021/01/05 04:40:47;;;;;;;9.23;5.80;;;;;;;;;;5057225;28;20464;-74
2021/01/05 04:43:35;;;;;;;8.90;6.33;;;;;;;;;;5056906;28;20458;-74
2021/01/05 04:46:09;;;;;;;11.80;7.20;;;;;;;;;;5035485;28;20467;-74
2021/01/05 04:48:41;;;;;;;11.70;7.03;;;;;;;;;;5036958;28;20453;-72
2021/01/05 04:51:14;;;;;;;12.10;7.57;;;;;;;;;;5037394;28;20738;-73
2021/01/05 04:53:48;;;;;;;12.83;8.23;;;;;;;;;;5037776;28;20455;-73
2021/01/05 04:56:16;;;;;;;11.20;7.30;;;;;;;;;;5055640;28;20769;-74
2021/01/05 04:58:46;;;;;;;14.20;8.80;;;;;;;;;;5056215;28;20501;-73
2021/01/05 05:01:17;;;;;;;9.53;7.53;;;;;;;;;;5047696;28;20532;-74
2021/01/05 05:03:52;;;;;;;13.10;8.43;;;;;;;;;;5056302;28;20519;-73
2021/01/05 05:06:30;;;;;;;12.63;8.80;;;;;;;;;;5056852;28;20469;-73
2021/01/05 05:09:28;;;;;;;13.23;8.07;;;;;;;;;;5057227;28;20523;-72
2021/01/05 05:12:03;;;;;;;9.80;7.03;;;;;;;;;;5057020;28;20465;-73
2021/01/05 05:14:45;;;;;;;13.30;8.60;;;;;;;;;;5056053;28;20866;-73
2021/01/05 05:17:35;;;;;;;11.37;7.63;;;;;;;;;;5057065;28;20814;-73
2021/01/05 05:20:07;;;;;;;11.00;7.40;;;;;;;;;;5046799;28;20458;-73
2021/01/05 05:22:40;;;;;;;10.67;7.20;;;;;;;;;;5056469;28;20496;-73
2021/01/05 05:25:17;;;;;;;10.27;7.47;;;;;;;;;;5056660;28;20457;-73
2021/01/05 05:27:52;;;;;;;12.73;8.37;;;;;;;;;;5056322;28;20483;-73
2021/01/05 05:30:21;;;;;;;11.63;7.23;;;;;;;;;;5056238;28;20457;-73
2021/01/05 05:32:49;;;;;;;12.33;8.03;;;;;;;;;;5056376;28;20469;-72
2021/01/05 05:35:35;;;;;;;12.40;7.77;;;;;;;;;;5056214;28;20458;-73
2021/01/05 05:38:03;;;;;;;12.13;8.93;;;;;;;;;;5055687;28;20490;-73
2021/01/05 05:40:45;;;;;;;10.03;7.90;;;;;;;;;;5056597;28;20461;-73
2021/01/05 05:43:26;;;;;;;11.23;7.40;;;;;;;;;;5059891;28;20745;-73
2021/01/05 05:45:56;;;;;;;10.90;8.20;;;;;;;;;;5059970;28;21061;-73
2021/01/05 05:48:29;;;;;;;12.40;8.70;;;;;;;;;;5060541;28;20469;-73
2021/01/05 05:51:14;;;;;;;12.40;8.30;;;;;;;;;;5059581;28;20457;-73
2021/01/05 05:53:47;;;;;;;11.47;7.90;;;;;;;;;;5059778;28;20458;-73
2021/01/05 05:56:16;;;;;;;11.77;8.40;;;;;;;;;;5059925;28;20442;-72
2021/01/05 05:58:47;;;;;;;13.20;9.10;;;;;;;;;;5060078;28;20492;-73
2021/01/05 06:01:19;;;;;;;15.80;9.17;;;;;;;;;;5059110;28;20471;-72
2021/01/05 06:03:46;;;;;;;12.30;8.23;;;;;;;;;;5060047;28;20464;-73
2021/01/05 06:06:13;;;;;;;10.40;7.40;;;;;;;;;;5059802;28;20453;-73
2021/01/05 06:08:41;;;;;;;13.13;8.23;;;;;;;;;;5059730;28;20465;-73
2021/01/05 06:11:10;;;;;;;12.80;8.60;;;;;;;;;;5058866;28;20458;-73
2021/01/05 06:13:37;;;;;;;12.30;8.10;;;;;;;;;;5059226;28;20716;-72
2021/01/05 06:16:04;;;;;;;11.80;8.00;;;;;;;;;;5059299;28;20881;-73
2021/01/05 06:18:32;;;;;;;12.90;9.53;;;;;;;;;;5059143;28;20578;-73
2021/01/05 06:20:59;;;;;;;13.63;8.03;;;;;;;;;;5059088;28;20491;-73
2021/01/05 06:23:26;;;;;;;14.43;8.20;;;;;;;;;;5058850;28;20482;-73
2021/01/05 06:25:54;;;;;;;13.97;10.17;;;;;;;;;;5059222;28;20465;-73
2021/01/05 06:28:25;;;;;;;12.13;8.33;;;;;;;;;;5059363;28;20543;-73
2021/01/05 06:30:52;;;;;;;11.50;7.77;;;;;;;;;;5058802;28;20446;-73
2021/01/05 06:33:20;;;;;;;12.90;7.67;;;;;;;;;;5054527;28;20473;-73
2021/01/05 06:35:47;;;;;;;12.23;8.03;;;;;;;;;;5058003;28;21126;-73
2021/01/05 06:38:15;;;;;;;10.03;7.67;;;;;;;;;;5059041;28;20486;-72
2021/01/05 06:40:42;;;;;;;10.73;7.50;;;;;;;;;;5059623;28;20473;-72
2021/01/05 06:43:09;;;;;;;11.90;8.90;;;;;;;;;;5058699;28;20889;-72
2021/01/05 06:45:37;;;;;;;14.07;8.60;;;;;;;;;;5059564;28;20843;-72
2021/01/05 06:48:05;;;;;;;11.47;7.20;;;;;;;;;;5056709;28;20465;-72
2021/01/05 06:50:33;;;;;;;10.70;6.87;;;;;;;;;;5058901;28;20453;-72
2021/01/05 06:53:00;;;;;;;12.30;7.43;;;;;;;;;;5057537;28;20539;-73
2021/01/05 06:55:27;;;;;;;10.30;7.80;;;;;;;;;;5058249;28;20453;-72
2021/01/05 06:57:55;;;;;;;11.00;7.60;;;;;;;;;;5058146;28;20588;-72
2021/01/05 07:00:24;;;;;;;12.27;8.07;;;;;;;;;;5057597;28;20458;-72
2021/01/05 07:03:01;;;;;;;12.40;6.57;;;;;;;;;;5057183;28;20465;-73
2021/01/05 07:05:29;;;;;;;14.60;6.77;;;;;;;;;;5043115;28;20511;-73
2021/01/05 07:07:56;;;;;;;10.73;7.17;;;;;;;;;;5058031;28;20540;-72
2021/01/05 07:10:24;;;;;;;9.10;6.70;;;;;;;;;;5057533;28;20557;-72
2021/01/05 07:12:51;;;;;;;13.37;6.50;;;;;;;;;;5057527;28;20454;-73
2021/01/05 07:15:21;;;;;;;10.70;6.50;;;;;;;;;;5058069;28;20464;-72
2021/01/05 07:17:49;;;;;;;11.53;7.23;;;;;;;;;;5057434;28;20792;-72
2021/01/05 07:20:19;;;;;;;8.60;6.17;;;;;;;;;;5057921;28;20924;-73
2021/01/05 07:22:53;;;;;;;9.30;6.20;;;;;;;;;;5057168;28;20485;-72
2021/01/05 07:25:20;;;;;;;8.70;5.90;;;;;;;;;;5057607;28;20465;-72
2021/01/05 07:27:51;;;;;;;9.93;6.30;;;;;;;;;;5056409;28;20890;-72
2021/01/05 07:30:20;;;;;;;9.80;6.73;;;;;;;;;;5058262;28;20511;-73
2021/01/05 07:32:50;;;;;;;10.07;6.50;;;;;;;;;;5058369;28;20866;-73
2021/01/05 07:35:18;;;;;;;9.10;6.40;;;;;;;;;;5057956;28;20458;-72
2021/01/05 07:37:46;;;;;;;12.40;7.37;;;;;;;;;;5057905;28;20485;-72
2021/01/05 07:40:15;;;;;;;10.50;6.73;;;;;;;;;;5057915;28;20462;-72
2021/01/05 07:42:43;;;;;;;9.00;6.30;;;;;;;;;;5057845;28;20871;-72
2021/01/05 07:45:16;;;;;;;10.63;5.70;;;;;;;;;;5057078;28;20454;-72
2021/01/05 07:47:44;;;;;;;10.10;6.27;;;;;;;;;;5056425;28;20534;-72
2021/01/05 07:50:17;;;;;;;9.07;5.87;;;;;;;;;;5057299;28;20523;-72
2021/01/05 07:52:45;;;;;;;9.00;6.63;;;;;;;;;;5057027;28;20828;-72
2021/01/05 07:55:16;;;;;;;8.13;5.73;;;;;;;;;;5056626;28;20722;-72
2021/01/05 07:57:43;;;;;;;12.63;7.57;;;;;;;;;;5056519;28;20469;-72
2021/01/05 08:00:13;;;;;;;8.80;6.23;;;;;;;;;;5056462;28;20482;-72
2021/01/05 08:02:41;;;;;;;8.10;6.20;;;;;;;;;;5040973;28;20469;-72
2021/01/05 08:05:09;;;;;;;9.77;6.83;;;;;;;;;;5057221;28;20495;-71
2021/01/05 08:07:47;;;;;;;10.83;6.20;;;;;;;;;;5057174;28;20486;-72
2021/01/05 08:10:21;;;;;;;8.97;5.87;;;;;;;;;;5056839;28;20461;-72
2021/01/05 08:12:56;;;;;;;9.83;6.43;;;;;;;;;;5056492;28;20458;-73
2021/01/05 08:15:26;;;;;;;10.60;6.73;;;;;;;;;;5057528;28;20495;-71
2021/01/05 08:17:54;;;;;;;9.13;5.90;;;;;;;;;;5057016;28;20459;-72
2021/01/05 08:20:27;;;;;;;12.23;6.13;;;;;;;;;;5055447;28;20461;-72
2021/01/05 08:22:58;;;;;;;10.83;7.03;;;;;;;;;;5031264;28;20458;-72
2021/01/05 08:25:27;;;;;;;13.30;7.30;;;;;;;;;;5036157;28;20517;-72
2021/01/05 08:27:55;;;;;;;10.63;6.30;;;;;;;;;;5036460;28;20553;-71
2021/01/05 08:30:24;;;;;;;10.10;7.40;;;;;;;;;;5036383;28;20821;-72
2021/01/05 08:32:52;;;;;;;10.63;6.53;;;;;;;;;;5035386;28;20470;-72
2021/01/05 08:35:36;;;;;;;11.20;6.70;;;;;;;;;;5035182;28;20887;-72
2021/01/05 08:38:05;;;;;;;11.37;7.97;;;;;;;;;;5035616;28;20498;-71
2021/01/05 08:40:37;;;;;;;12.50;7.77;;;;;;;;;;5033313;28;20459;-71
2021/01/05 08:43:05;;;;;;;13.53;7.63;;;;;;;;;;5035077;28;20475;-73
2021/01/05 08:45:32;;;;;;;11.33;7.10;;;;;;;;;;5033898;28;20455;-73
2021/01/05 08:48:00;;;;;;;9.70;6.63;;;;;;;;;;5034863;28;20463;-73
2021/01/05 08:50:29;;;;;;;12.33;7.17;;;;;;;;;;5034242;28;20605;-73
2021/01/05 08:52:57;;;;;;;10.40;6.43;;;;;;;;;;5035449;28;20470;-73
2021/01/05 08:55:24;;;;;;;12.83;7.30;;;;;;;;;;5034657;28;20532;-72
2021/01/05 08:57:53;;;;;;;11.80;7.43;;;;;;;;;;5033411;28;20466;-73
2021/01/05 09:00:21;;;;;;;14.90;7.97;;;;;;;;;;5033678;28;20459;-72
2021/01/05 09:02:48;;;;;;;10.23;7.30;;;;;;;;;;5034162;28;20471;-72
2021/01/05 09:05:17;;;;;;;11.53;7.70;;;;;;;;;;5033000;28;20455;-72
2021/01/05 09:07:45;;;;;;;12.57;7.03;;;;;;;;;;5033983;28;20463;-72
2021/01/05 09:10:16;;;;;;;17.80;9.00;;;;;;;;;;5033368;28;20463;-72
2021/01/05 09:12:44;;;;;;;10.70;6.90;;;;;;;;;;5050972;28;20469;-72
2021/01/05 09:15:15;;;;;;;11.97;7.03;;;;;;;;;;5054147;28;20458;-72
2021/01/05 09:17:43;;;;;;;14.17;8.50;;;;;;;;;;5052453;28;20871;-72
2021/01/05 09:20:14;;;;;;;11.80;7.67;;;;;;;;;;5050135;28;20481;-73
2021/01/05 09:22:48;;;;;;;8.90;6.60;;;;;;;;;;5054651;28;20489;-73
2021/01/05 09:25:15;;;;;;;14.80;7.70;;;;;;;;;;5051875;28;20453;-71
2021/01/05 09:27:43;;;;;;;13.20;7.13;;;;;;;;;;5055419;28;20885;-73
2021/01/05 09:30:13;;;;;;;13.20;7.73;;;;;;;;;;5054556;28;20944;-72
2021/01/05 09:32:41;;;;;;;9.27;7.20;;;;;;;;;;5054348;28;20476;-74
2021/01/05 09:35:10;;;;;;;15.13;7.77;;;;;;;;;;5054499;28;20464;-72
2021/01/05 09:37:40;;;;;;;8.87;6.40;;;;;;;;;;5053966;28;20866;-71
2021/01/05 09:40:08;;;;;;;11.33;6.63;;;;;;;;;;5053793;28;20780;-73
2021/01/05 09:42:35;;;;;;;12.33;8.03;;;;;;;;;;5054195;28;20493;-72
2021/01/05 09:45:02;;;;;;;10.50;6.97;;;;;;;;;;5054947;28;20516;-72
2021/01/05 09:47:30;;;;;;;14.07;8.60;;;;;;;;;;5054667;28;20477;-72
2021/01/05 09:49:58;;;;;;;11.77;7.63;;;;;;;;;;5047215;28;20471;-72
2021/01/05 09:52:26;;;;;;;10.50;7.07;;;;;;;;;;5035589;28;20525;-72
2021/01/05 09:54:53;;;;;;;10.97;6.43;;;;;;;;;;5035441;28;20931;-72
2021/01/05 09:57:23;;;;;;;8.83;6.30;;;;;;;;;;5035176;28;20454;-72
2021/01/05 09:59:51;;;;;;;9.73;6.80;;;;;;;;;;5035371;28;20913;-72
2021/01/05 10:02:22;;;;;;;13.67;9.67;;;;;;;;;;5036007;28;20470;-73
2021/01/05 10:04:52;;;;;;;10.73;6.40;;;;;;;;;;5053975;28;20503;-72
2021/01/05 10:07:23;;;;;;;8.30;6.17;;;;;;;;;;5044316;28;20471;-72
2021/01/05 10:09:54;;;;;;;10.10;6.27;;;;;;;;;;5034216;28;20470;-72
2021/01/05 10:12:21;;;;;;;9.40;6.57;;;;;;;;;;5034257;28;20455;-72
2021/01/05 10:15:04;;;;;;;9.90;5.73;;;;;;;;;;5033664;28;20794;-72
2021/01/05 10:17:38;;;;;;;9.10;6.00;;;;;;;;;;5035228;28;20450;-73
2021/01/05 10:20:08;;;;;;;9.07;5.60;;;;;;;;;;5035033;28;21088;-73
2021/01/05 10:22:37;;;;;;;9.50;6.60;;;;;;;;;;5034832;28;20450;-72
2021/01/05 10:25:04;;;;;;;7.70;5.73;;;;;;;;;;5035120;28;20459;-73
2021/01/05 10:27:32;;;;;;;9.03;6.00;;;;;;;;;;5045484;28;20450;-73
2021/01/05 10:30:01;;;;;;;6.77;5.03;;;;;;;;;;5058898;28;20507;-73
2021/01/05 10:32:32;;;;;;;8.50;5.30;;;;;;;;;;5058533;28;20454;-73
2021/01/05 10:35:00;;;;;;;8.60;6.13;;;;;;;;;;5058799;28;20469;-73
2021/01/05 10:37:27;;;;;;;6.73;5.00;;;;;;;;;;5058019;28;20462;-73
2021/01/05 10:39:56;;;;;;;9.17;5.90;;;;;;;;;;5058048;28;21102;-73
2021/01/05 10:42:40;;;;;;;13.30;9.67;;;;;;;;;;5040462;28;20461;-73
2021/01/05 10:45:22;;;;;;;7.77;5.43;;;;;;;;;;5038156;28;20466;-73
2021/01/05 10:47:50;;;;;;;7.80;5.20;;;;;;;;;;5038310;28;20549;-73
2021/01/05 10:50:22;;;;;;;8.47;4.93;;;;;;;;;;5038721;28;21089;-73
2021/01/05 10:52:50;;;;;;;7.23;5.50;;;;;;;;;;5036832;28;20612;-72
2021/01/05 10:55:22;;;;;;;8.23;4.97;;;;;;;;;;5042338;28;20539;-74
2021/01/05 10:58:10;;;;;;;10.57;5.57;;;;;;;;;;5058610;28;20454;-74
2021/01/05 11:00:38;;;;;;;7.87;5.53;;;;;;;;;;5040057;28;21026;-73
2021/01/05 11:03:10;;;;;;;8.70;5.30;;;;;;;;;;5038140;28;20556;-71
2021/01/05 11:05:39;;;;;;;7.80;5.20;;;;;;;;;;5038050;28;20466;-73
2021/01/05 11:08:08;;;;;;;8.33;5.27;;;;;;;;;;5038003;28;20470;-73
2021/01/05 11:10:36;;;;;;;9.50;4.80;;;;;;;;;;5038063;28;20467;-73
2021/01/05 11:13:06;;;;;;;6.33;4.80;;;;;;;;;;5037559;28;21144;-74
2021/01/05 11:15:33;;;;;;;8.70;4.90;;;;;;;;;;5036327;28;20451;-74
2021/01/05 11:18:04;;;;;;;9.17;5.30;;;;;;;;;;5037325;28;20470;-73
2021/01/05 11:20:31;;;;;;;8.27;5.30;;;;;;;;;;5036882;28;20447;-73
2021/01/05 11:23:00;;;;;;;13.10;5.83;;;;;;;;;;5047824;28;20481;-73
2021/01/05 11:25:27;;;;;;;6.13;4.80;;;;;;;;;;5057009;28;20544;-73
2021/01/05 11:27:55;;;;;;;10.10;5.73;;;;;;;;;;5056612;28;20470;-73
2021/01/05 11:30:25;;;;;;;6.97;4.50;;;;;;;;;;5049321;28;20462;-73
2021/01/05 11:32:54;;;;;;;6.40;4.50;;;;;;;;;;5057515;28;20458;-73
2021/01/05 11:35:22;;;;;;;5.07;3.87;;;;;;;;;;5057143;28;20694;-73
2021/01/05 11:37:52;;;;;;;6.33;4.20;;;;;;;;;;5057232;28;20468;-73
2021/01/05 11:40:24;;;;;;;6.53;4.60;;;;;;;;;;5056852;28;20489;-72
2021/01/05 11:42:56;;;;;;;8.07;4.30;;;;;;;;;;5056624;28;20477;-72
2021/01/05 11:45:25;;;;;;;5.90;3.87;;;;;;;;;;5039584;28;20454;-72
2021/01/05 11:47:53;;;;;;;16.00;10.00;;;;;;;;;;5056817;28;20497;-73
2021/01/05 11:50:20;;;;;;;8.07;5.13;;;;;;;;;;5056169;28;21075;-73
2021/01/05 11:52:59;;;;;;;6.87;4.20;;;;;;;;;;5056178;28;20480;-73
2021/01/05 11:55:27;;;;;;;6.13;4.47;;;;;;;;;;5028321;28;20450;-73
2021/01/05 11:58:00;;;;;;;6.40;3.67;;;;;;;;;;5035247;28;20788;-72
2021/01/05 12:00:29;;;;;;;6.53;4.13;;;;;;;;;;5027779;28;20458;-72
2021/01/05 12:02:57;;;;;;;6.50;3.47;;;;;;;;;;5035753;28;20463;-73
2021/01/05 12:05:29;;;;;;;5.67;3.80;;;;;;;;;;5035951;28;20454;-73
2021/01/05 12:08:01;;;;;;;5.70;3.77;;;;;;;;;;5043825;28;20455;-73
2021/01/05 12:10:29;;;;;;;6.80;4.40;;;;;;;;;;5068721;28;20476;-74
2021/01/05 12:13:16;;;;;;;5.77;4.00;;;;;;;;;;5065028;28;20461;-73
2021/01/05 12:15:47;;;;;;;6.00;3.87;;;;;;;;;;5076661;28;20459;-73
2021/01/05 12:18:16;;;;;;;7.47;4.43;;;;;;;;;;5055233;28;20472;-73
2021/01/05 12:20:44;;;;;;;6.50;3.80;;;;;;;;;;5057531;28;20894;-72
2021/01/05 12:23:11;;;;;;;5.33;4.23;;;;;;;;;;5056271;28;20879;-73
2021/01/05 12:25:45;;;;;;;6.00;4.17;;;;;;;;;;5055838;28;20524;-73
2021/01/05 12:28:13;;;;;;;6.37;3.87;;;;;;;;;;5040381;28;20477;-74
2021/01/05 12:30:41;;;;;;;5.77;4.10;;;;;;;;;;5056463;28;20458;-73
2021/01/05 12:33:10;;;;;;;8.37;4.10;;;;;;;;;;5055105;28;20550;-73
2021/01/05 12:35:42;;;;;;;6.77;4.50;;;;;;;;;;5056268;28;20523;-73
2021/01/05 12:38:14;;;;;;;7.70;4.90;;;;;;;;;;5056074;28;20949;-73
2021/01/05 12:40:42;;;;;;;7.60;5.17;;;;;;;;;;5055137;28;20469;-73
2021/01/05 12:43:15;;;;;;;6.93;4.77;;;;;;;;;;5055454;28;20458;-73
2021/01/05 12:45:43;;;;;;;5.10;3.90;;;;;;;;;;5055908;28;20704;-73
2021/01/05 12:48:13;;;;;;;10.73;5.20;;;;;;;;;;5055595;28;20484;-73
2021/01/05 12:50:41;;;;;;;8.50;5.50;;;;;;;;;;5038777;28;20476;-73
2021/01/05 12:53:13;;;;;;;6.03;4.70;;;;;;;;;;5055718;28;20496;-73
2021/01/05 12:55:47;;;;;;;6.57;4.30;;;;;;;;;;5056268;28;20496;-73
2021/01/05 12:58:25;;;;;;;5.50;4.13;;;;;;;;;;5054299;28;20938;-72
2021/01/05 13:00:57;;;;;;;8.43;4.60;;;;;;;;;;5056195;28;20944;-73
2021/01/05 13:03:38;;;;;;;7.20;4.67;;;;;;;;;;5054354;28;20457;-73
2021/01/05 13:06:06;;;;;;;7.07;5.63;;;;;;;;;;5042833;28;20508;-73
2021/01/05 13:08:38;;;;;;;6.03;4.73;;;;;;;;;;5053830;28;20453;-73
2021/01/05 13:11:06;;;;;;;6.47;4.33;;;;;;;;;;5052000;28;20453;-72
2021/01/05 13:13:34;;;;;;;6.63;4.97;;;;;;;;;;5056907;28;20762;-73
2021/01/05 13:16:02;;;;;;;7.57;4.87;;;;;;;;;;5054809;28;20461;-73
2021/01/05 13:18:44;;;;;;;9.63;4.40;;;;;;;;;;5035471;28;20905;-72
2021/01/05 13:21:18;;;;;;;7.20;4.57;;;;;;;;;;5036988;28;20454;-74
2021/01/05 13:23:57;;;;;;;6.37;4.20;;;;;;;;;;5034863;28;20455;-73
2021/01/05 13:26:28;;;;;;;9.57;5.20;;;;;;;;;;5042769;28;20761;-73
2021/01/05 13:28:56;;;;;;;5.70;4.37;;;;;;;;;;5054853;28;20442;-73
2021/01/05 13:31:24;;;;;;;8.67;5.83;;;;;;;;;;5038797;28;20796;-73
2021/01/05 13:33:57;;;;;;;4.87;3.70;;;;;;;;;;5035605;28;20768;-73
2021/01/05 13:36:26;;;;;;;5.93;3.50;;;;;;;;;;5039745;28;20563;-73
2021/01/05 13:39:01;;;;;;;5.97;4.57;;;;;;;;;;5037576;28;20493;-73
2021/01/05 13:41:30;;;;;;;7.40;5.03;;;;;;;;;;5049718;28;20457;-73
2021/01/05 13:44:06;;;;;;;4.47;3.40;;;;;;;;;;5054256;28;20735;-73
2021/01/05 13:46:34;;;;;;;7.97;4.30;;;;;;;;;;5054841;28;20526;-73
2021/01/05 13:49:09;;;;;;;7.40;4.00;;;;;;;;;;5054635;28;20700;-73
2021/01/05 13:51:40;;;;;;;6.43;4.10;;;;;;;;;;5054563;28;20853;-72
2021/01/05 13:54:07;;;;;;;7.20;4.23;;;;;;;;;;5037244;28;20474;-72
2021/01/05 13:56:38;;;;;;;7.00;3.93;;;;;;;;;;5045948;28;20476;-73
2021/01/05 13:59:14;;;;;;;6.67;3.73;;;;;;;;;;5053247;28;20496;-73
2021/01/05 14:01:43;;;;;;;5.10;3.93;;;;;;;;;;5053361;28;20943;-73
2021/01/05 14:04:13;;;;;;;5.63;3.47;;;;;;;;;;5057401;28;20925;-73
2021/01/05 14:06:45;;;;;;;7.60;3.80;;;;;;;;;;5057198;28;20465;-71
2021/01/05 14:09:19;;;;;;;5.03;3.33;;;;;;;;;;5057363;28;20453;-73
2021/01/05 14:11:52;;;;;;;6.30;3.67;;;;;;;;;;5057477;28;20456;-73
2021/01/05 14:14:27;;;;;;;4.93;4.10;;;;;;;;;;5057191;28;20736;-73
2021/01/05 14:16:56;;;;;;;6.67;3.60;;;;;;;;;;5056228;28;20461;-73
2021/01/05 14:19:29;;;;;;;5.83;4.30;;;;;;;;;;5053125;28;20521;-73
2021/01/05 14:22:00;;;;;;;4.33;3.30;;;;;;;;;;5067438;28;20458;-74
2021/01/05 14:24:28;;;;;;;7.83;4.27;;;;;;;;;;5059815;28;20798;-74
2021/01/05 14:26:56;;;;;;;4.80;3.90;;;;;;;;;;5053703;28;21184;-71
2021/01/05 14:29:27;;;;;;;6.50;4.20;;;;;;;;;;5051073;28;20457;-73
2021/01/05 14:31:58;;;;;;;8.43;3.93;;;;;;;;;;5038363;28;20469;-72
2021/01/05 14:34:34;;;;;;;5.43;4.07;;;;;;;;;;5038102;28;20463;-72
2021/01/05 14:37:11;;;;;;;7.07;4.47;;;;;;;;;;5036051;28;20556;-72
2021/01/05 14:39:41;;;;;;;6.67;4.93;;;;;;;;;;5037613;28;20658;-73
2021/01/05 14:42:13;;;;;;;7.20;4.70;;;;;;;;;;5036461;28;20855;-72
2021/01/05 14:44:42;;;;;;;6.23;4.53;;;;;;;;;;5035960;28;20458;-73
2021/01/05 14:47:14;;;;;;;6.87;4.27;;;;;;;;;;5036294;28;20454;-73
2021/01/05 14:49:48;;;;;;;7.77;5.90;;;;;;;;;;5036191;28;20463;-72
2021/01/05 14:52:17;;;;;;;5.80;4.30;;;;;;;;;;5045841;28;20599;-73
2021/01/05 14:54:49;;;;;;;7.77;5.10;;;;;;;;;;5059587;28;20458;-72
2021/01/05 14:57:19;;;;;;;10.20;5.60;;;;;;;;;;5051460;28;20474;-71
2021/01/05 14:59:49;;;;;;;6.40;4.57;;;;;;;;;;5043086;28;20556;-73